createdAt,value
2023-03-29T00:00:49.554Z,101395.66
2023-03-29T00:03:52.020Z,101415.91
2023-03-29T00:06:55.230Z,101398.31
2023-03-29T00:09:58.044Z,101416.75
2023-03-29T00:13:00.042Z,101413.25
2023-03-29T00:16:01.913Z,101422.94
2023-03-29T00:19:04.676Z,101422.91
2023-03-29T00:22:06.791Z,101428.22
2023-03-29T00:25:09.754Z,101419.44
2023-03-29T00:28:13.896Z,101413.25
2023-03-29T00:31:17.697Z,101406.25
2023-03-29T00:34:30.828Z,101413.25
2023-03-29T00:37:32.958Z,101392.16
2023-03-29T00:40:35.305Z,101384.25
2023-03-29T00:43:55.400Z,101372.78
2023-03-29T00:46:57.342Z,101356.06
2023-03-29T00:50:06.992Z,101350.75
2023-03-29T00:53:22.973Z,101344.50
2023-03-29T00:56:29.895Z,101320.75
2023-03-29T00:59:35.714Z,101311.94
2023-03-29T01:02:39.903Z,101327.72
2023-03-29T01:05:45.098Z,101327.72
2023-03-29T01:08:54.852Z,101318.09
2023-03-29T01:12:03.553Z,101288.28
2023-03-29T01:15:26.600Z,101307.56
2023-03-29T01:18:31.388Z,101304.09
2023-03-29T01:21:36.357Z,101291.78
2023-03-29T01:25:11.355Z,101282.13
2023-03-29T01:28:15.721Z,101287.41
2023-03-29T01:31:25.276Z,101292.69
2023-03-29T01:34:47.381Z,101284.78
2023-03-29T01:37:56.721Z,101283.12
2023-03-29T01:40:58.550Z,101299.00
2023-03-29T01:44:10.277Z,101305.16
2023-03-29T01:47:24.390Z,101301.63
2023-03-29T01:50:49.370Z,101284.19
2023-03-29T01:54:28.573Z,101310.47
2023-03-29T01:57:32.981Z,101312.28
2023-03-29T02:00:36.319Z,101323.78
2023-03-29T02:03:42.927Z,101324.69
2023-03-29T02:06:45.127Z,101308.03
2023-03-29T02:09:48.905Z,101325.59
2023-03-29T02:12:50.852Z,101328.22
2023-03-29T02:15:52.781Z,101353.72
2023-03-29T02:18:56.474Z,101373.03
2023-03-29T02:22:07.399Z,101373.94
2023-03-29T02:25:09.650Z,101369.50
2023-03-29T02:28:11.870Z,101393.22
2023-03-29T02:31:21.460Z,101381.81
2023-03-29T02:34:30.023Z,101373.91
2023-03-29T02:37:34.488Z,101376.53
2023-03-29T02:40:37.709Z,101379.19
2023-03-29T02:43:41.358Z,101408.97
2023-03-29T02:46:43.993Z,101385.31
2023-03-29T02:49:45.875Z,101395.84
2023-03-29T02:52:54.104Z,101407.25
2023-03-29T02:55:56.156Z,101407.25
2023-03-29T02:58:58.076Z,101414.25
2023-03-29T03:02:00.773Z,101403.72
2023-03-29T03:05:02.627Z,101420.37
2023-03-29T03:08:07.234Z,101416.91
2023-03-29T03:11:09.093Z,101410.75
2023-03-29T03:14:11.152Z,101425.66
2023-03-29T03:17:12.890Z,101429.13
2023-03-29T03:20:15.052Z,101433.53
2023-03-29T03:23:17.805Z,101442.28
2023-03-29T03:26:20.054Z,101430.84
2023-03-29T03:29:22.254Z,101439.63
2023-03-29T03:32:24.102Z,101438.75
2023-03-29T03:35:25.905Z,101454.50
2023-03-29T03:38:27.651Z,101450.09
2023-03-29T03:41:29.437Z,101447.44
2023-03-29T03:44:31.486Z,101457.09
2023-03-29T03:47:33.999Z,101452.72
2023-03-29T03:50:35.855Z,101442.22
2023-03-29T03:53:38.050Z,101444.81
2023-03-29T03:56:39.955Z,101444.81
2023-03-29T03:59:42.226Z,101455.34
2023-03-29T04:02:45.011Z,101451.81
2023-03-29T04:05:47.393Z,101451.81
2023-03-29T04:08:49.191Z,101454.41
2023-03-29T04:11:53.120Z,101457.00
2023-03-29T04:14:56.071Z,101454.37
2023-03-29T04:17:59.223Z,101451.75
2023-03-29T04:21:01.458Z,101453.47
2023-03-29T04:24:03.464Z,101452.59
2023-03-29T04:27:05.209Z,101451.75
2023-03-29T04:30:08.151Z,101452.62
2023-03-29T04:33:10.406Z,101438.59
2023-03-29T04:36:13.953Z,101455.25
2023-03-29T04:39:18.061Z,101462.25
2023-03-29T04:42:20.564Z,101447.34
2023-03-29T04:45:22.596Z,101452.69
2023-03-29T04:48:25.785Z,101452.72
2023-03-29T04:51:27.598Z,101439.59
2023-03-29T04:54:29.489Z,101431.78
2023-03-29T04:57:31.451Z,101428.25
2023-03-29T05:00:33.912Z,101427.38
2023-03-29T05:03:36.466Z,101437.03
2023-03-29T05:06:38.631Z,101446.69
2023-03-29T05:09:41.808Z,101455.44
2023-03-29T05:12:43.641Z,101470.34
2023-03-29T05:15:45.484Z,101442.34
2023-03-29T05:18:47.328Z,101440.59
2023-03-29T05:21:51.227Z,101446.72
2023-03-29T05:24:53.076Z,101450.25
2023-03-29T05:27:56.382Z,101447.63
2023-03-29T05:31:05.179Z,101433.53
2023-03-29T05:34:07.215Z,101446.72
2023-03-29T05:37:09.114Z,101440.56
2023-03-29T05:40:13.073Z,101433.47
2023-03-29T05:43:15.000Z,101451.94
2023-03-29T05:46:16.962Z,101449.25
2023-03-29T05:49:19.450Z,101430.72
2023-03-29T05:52:21.396Z,101427.09
2023-03-29T05:55:23.753Z,101417.25
2023-03-29T05:58:26.637Z,101409.22
2023-03-29T06:01:28.733Z,101429.41
2023-03-29T06:04:31.837Z,101417.81
2023-03-29T06:07:33.697Z,101416.87
2023-03-29T06:10:37.514Z,101413.25
2023-03-29T06:13:39.532Z,101412.50
2023-03-29T06:16:42.806Z,101420.19
2023-03-29T06:19:44.818Z,101421.00
2023-03-29T06:22:47.929Z,101439.53
2023-03-29T06:25:51.558Z,101419.94
2023-03-29T06:28:53.876Z,101418.09
2023-03-29T06:31:57.208Z,101417.00
2023-03-29T06:34:59.022Z,101391.38
2023-03-29T06:38:01.449Z,101387.66
2023-03-29T06:41:04.941Z,101397.09
2023-03-29T06:44:06.899Z,101351.34
2023-03-29T06:47:09.265Z,101328.28
2023-03-29T06:50:11.728Z,101353.50
2023-03-29T06:53:13.801Z,101334.66
2023-03-29T06:56:16.112Z,101348.72
2023-03-29T06:59:18.215Z,101339.53
2023-03-29T07:02:20.144Z,101314.56
2023-03-29T07:05:22.195Z,101313.38
2023-03-29T07:08:30.977Z,101272.00
2023-03-29T07:11:36.913Z,101291.97
2023-03-29T07:14:39.880Z,101305.78
2023-03-29T07:17:41.761Z,101292.25
2023-03-29T07:20:44.640Z,101298.16
2023-03-29T07:23:46.668Z,101308.63
2023-03-29T07:27:00.164Z,101301.37
2023-03-29T07:30:11.194Z,101310.84
2023-03-29T07:33:13.532Z,101296.53
2023-03-29T07:36:16.694Z,101300.00
2023-03-29T07:39:19.269Z,101290.22
2023-03-29T07:42:21.577Z,101288.09
2023-03-29T07:45:26.813Z,101292.00
2023-03-29T07:48:30.844Z,101257.41
2023-03-29T07:51:32.604Z,101249.81
2023-03-29T07:54:34.751Z,101243.97
2023-03-29T07:57:36.763Z,101234.44
2023-03-29T08:00:38.560Z,101223.31
2023-03-29T08:03:41.495Z,101220.91
2023-03-29T08:06:43.462Z,101160.50
2023-03-29T08:09:45.423Z,101192.44
2023-03-29T08:12:48.228Z,101158.72
2023-03-29T08:15:50.358Z,101168.84
2023-03-29T08:18:52.141Z,101158.50
2023-03-29T08:21:54.109Z,101159.69
2023-03-29T08:24:55.894Z,101156.25
2023-03-29T08:27:58.016Z,101158.22
2023-03-29T08:31:00.145Z,101173.44
2023-03-29T08:34:02.260Z,101119.47
2023-03-29T08:37:04.867Z,101126.75
2023-03-29T08:40:07.372Z,101145.41
2023-03-29T08:43:38.238Z,101137.91
2023-03-29T08:46:52.277Z,101125.72
2023-03-29T08:49:56.393Z,101150.12
2023-03-29T08:53:03.190Z,101141.72
2023-03-29T08:56:08.824Z,101148.22
2023-03-29T08:59:23.180Z,101118.97
2023-03-29T09:02:27.818Z,101150.56
2023-03-29T09:05:34.499Z,101150.25
2023-03-29T09:08:41.836Z,101122.34
2023-03-29T09:12:24.621Z,101158.03
2023-03-29T09:15:40.648Z,101121.56
2023-03-29T09:18:42.478Z,101145.63
2023-03-29T09:21:57.967Z,101143.94
2023-03-29T09:25:50.837Z,101101.50
2023-03-29T09:29:23.681Z,101148.22
2023-03-29T09:32:37.343Z,101109.50
2023-03-29T09:35:45.678Z,101139.00
2023-03-29T09:38:50.965Z,101131.63
2023-03-29T09:42:04.189Z,101125.28
2023-03-29T09:45:09.562Z,101112.03
2023-03-29T09:48:16.007Z,101119.09
2023-03-29T09:51:20.176Z,101112.59
2023-03-29T09:54:22.312Z,101098.19
2023-03-29T09:57:26.208Z,101111.69
2023-03-29T10:00:28.483Z,101082.22
2023-03-29T10:03:31.884Z,101109.59
2023-03-29T10:06:34.340Z,101078.16
2023-03-29T10:09:36.101Z,101065.94
2023-03-29T10:12:38.269Z,101062.84
2023-03-29T10:15:40.033Z,101059.88
2023-03-29T10:18:43.045Z,101062.84
2023-03-29T10:21:47.152Z,101065.78
2023-03-29T10:24:53.658Z,101065.84
2023-03-29T10:28:04.421Z,101107.03
2023-03-29T10:31:08.307Z,101105.16
2023-03-29T10:34:12.880Z,101077.72
2023-03-29T10:37:16.670Z,101075.97
2023-03-29T10:40:24.638Z,101064.53
2023-03-29T10:43:32.324Z,101088.56
2023-03-29T10:46:41.924Z,101087.31
2023-03-29T10:49:50.841Z,101059.50
2023-03-29T10:52:53.034Z,101082.72
2023-03-29T10:55:57.851Z,101086.50
2023-03-29T10:59:14.396Z,101095.41
2023-03-29T11:02:24.589Z,101065.88
2023-03-29T11:05:38.761Z,101063.44
2023-03-29T11:08:49.006Z,101067.63
2023-03-29T11:12:15.458Z,101073.22
2023-03-29T11:15:30.233Z,101053.78
2023-03-29T11:18:41.391Z,101094.91
2023-03-29T11:21:50.086Z,101052.56
2023-03-29T11:25:02.398Z,101027.94
2023-03-29T11:28:11.149Z,101040.53
2023-03-29T11:31:39.844Z,101035.41
2023-03-29T11:34:57.357Z,101047.22
2023-03-29T11:38:24.292Z,100980.78
2023-03-29T11:41:30.054Z,101020.09
2023-03-29T11:44:31.967Z,101006.37
2023-03-29T11:47:38.826Z,100986.75
2023-03-29T11:50:53.864Z,100997.81
2023-03-29T11:54:21.919Z,100987.84
2023-03-29T11:57:27.987Z,101003.66
2023-03-29T12:00:42.366Z,101016.94
2023-03-29T12:03:51.764Z,100994.38
2023-03-29T12:07:01.765Z,100990.44
2023-03-29T12:10:20.962Z,100960.09
2023-03-29T12:13:36.311Z,100939.16
2023-03-29T12:16:44.035Z,100960.66
2023-03-29T12:20:13.993Z,100968.75
2023-03-29T12:23:16.322Z,100947.81
2023-03-29T12:26:32.765Z,100970.31
2023-03-29T12:29:49.615Z,100947.53
2023-03-29T12:33:19.165Z,100940.97
2023-03-29T12:36:30.136Z,100934.69
2023-03-29T12:39:33.400Z,100966.19
2023-03-29T12:42:44.785Z,100915.72
2023-03-29T12:45:51.127Z,100942.31
2023-03-29T12:48:58.137Z,100960.34
2023-03-29T12:52:02.486Z,100962.44
2023-03-29T12:55:21.256Z,100920.56
2023-03-29T12:58:43.033Z,100901.59
2023-03-29T13:01:57.978Z,100939.78
2023-03-29T13:05:01.252Z,100929.19
2023-03-29T13:08:36.617Z,100938.81
2023-03-29T13:11:41.392Z,100920.50
2023-03-29T13:14:45.628Z,100919.00
2023-03-29T13:18:04.203Z,100929.84
2023-03-29T13:21:21.358Z,100928.78
2023-03-29T13:24:38.348Z,100904.09
2023-03-29T13:27:55.449Z,100913.03
2023-03-29T13:31:28.295Z,100899.59
2023-03-29T13:34:49.247Z,100922.44
2023-03-29T13:38:00.254Z,100894.37
2023-03-29T13:41:12.291Z,100902.09
2023-03-29T13:44:27.329Z,100922.25
2023-03-29T13:47:40.224Z,100934.06
2023-03-29T13:50:53.971Z,100906.12
2023-03-29T13:54:27.313Z,100920.22
2023-03-29T13:57:39.798Z,100923.25
2023-03-29T14:01:15.508Z,100906.12
2023-03-29T14:04:23.951Z,100912.59
2023-03-29T14:07:28.058Z,100922.09
2023-03-29T14:10:41.636Z,100897.56
2023-03-29T14:13:43.528Z,100904.28
2023-03-29T14:16:46.204Z,100889.59
2023-03-29T14:19:48.674Z,100889.16
2023-03-29T14:22:51.536Z,100889.03
2023-03-29T14:25:53.341Z,100872.84
2023-03-29T14:28:57.466Z,100886.12
2023-03-29T14:32:10.566Z,100863.84
2023-03-29T14:35:13.347Z,100889.44
2023-03-29T14:38:16.566Z,100901.69
2023-03-29T14:41:18.564Z,100877.81
2023-03-29T14:44:22.503Z,100890.87
2023-03-29T14:47:28.469Z,100893.19
2023-03-29T14:50:31.417Z,100883.44
2023-03-29T14:53:34.509Z,100884.37
2023-03-29T14:56:36.700Z,100916.81
2023-03-29T14:59:41.721Z,100908.44
2023-03-29T15:02:55.195Z,100905.94
2023-03-29T15:06:02.786Z,100920.00
2023-03-29T15:09:06.808Z,100907.56
2023-03-29T15:12:15.519Z,100903.75
2023-03-29T15:15:17.517Z,100909.50
2023-03-29T15:18:30.692Z,100902.00
2023-03-29T15:21:36.109Z,100902.13
2023-03-29T15:24:44.893Z,100918.84
2023-03-29T15:27:50.520Z,100904.13
2023-03-29T15:31:07.152Z,100914.16
2023-03-29T15:34:13.094Z,100907.59
2023-03-29T15:37:14.897Z,100912.47
2023-03-29T15:40:19.829Z,100907.44
2023-03-29T15:43:22.535Z,100909.97
2023-03-29T15:46:25.352Z,100888.56
2023-03-29T15:49:27.657Z,100901.06
2023-03-29T15:52:29.436Z,100874.28
2023-03-29T15:55:32.134Z,100893.38
2023-03-29T15:58:34.853Z,100905.91
2023-03-29T16:01:37.656Z,100888.88
2023-03-29T16:04:39.819Z,100908.56
2023-03-29T16:07:41.780Z,100912.81
2023-03-29T16:10:47.215Z,100901.75
2023-03-29T16:13:49.674Z,100909.47
2023-03-29T16:16:52.888Z,100913.19
2023-03-29T16:19:54.834Z,100905.41
2023-03-29T16:22:56.785Z,100887.28
2023-03-29T16:25:59.388Z,100907.66
2023-03-29T16:29:01.572Z,100886.97
2023-03-29T16:32:06.143Z,100914.94
2023-03-29T16:35:42.382Z,100915.37
2023-03-29T16:38:45.042Z,100918.78
2023-03-29T16:41:48.966Z,100915.16
2023-03-29T16:44:51.202Z,100949.72
2023-03-29T16:47:54.464Z,100964.56
2023-03-29T16:50:56.821Z,100968.41
2023-03-29T16:54:00.689Z,100977.44
2023-03-29T16:57:02.772Z,100982.69
2023-03-29T17:00:06.892Z,100995.81
2023-03-29T17:03:09.050Z,100999.50
2023-03-29T17:06:11.702Z,100999.00
2023-03-29T17:09:13.759Z,100997.44
2023-03-29T17:13:33.097Z,100962.09
2023-03-29T17:16:35.112Z,100962.09
2023-03-29T17:19:36.979Z,101002.56
2023-03-29T17:22:40.347Z,100994.00
2023-03-29T17:25:43.048Z,101003.94
2023-03-29T17:28:44.928Z,101007.19
2023-03-29T17:31:47.853Z,101014.91
2023-03-29T17:34:50.001Z,101014.97
2023-03-29T17:37:52.048Z,101025.94
2023-03-29T17:40:54.907Z,101032.56
2023-03-29T17:43:56.790Z,101031.28
2023-03-29T17:46:58.712Z,101030.34
2023-03-29T17:50:01.075Z,101051.31
2023-03-29T17:53:05.548Z,101054.03
2023-03-29T17:56:07.922Z,101037.91
2023-03-29T17:59:09.763Z,101035.31
2023-03-29T18:02:19.839Z,101037.97
2023-03-29T18:05:21.756Z,101055.84
2023-03-29T18:08:23.979Z,101051.84
2023-03-29T18:11:25.826Z,101059.09
2023-03-29T18:14:27.938Z,101062.12
2023-03-29T18:17:30.252Z,101062.28
2023-03-29T18:20:32.342Z,101073.09
2023-03-29T18:23:37.643Z,101088.41
2023-03-29T18:26:39.487Z,101090.44
2023-03-29T18:29:42.465Z,101087.81
2023-03-29T18:32:46.056Z,101096.06
2023-03-29T18:35:50.563Z,101110.06
2023-03-29T18:38:55.693Z,101110.31
2023-03-29T18:41:57.659Z,101117.31
2023-03-29T18:44:59.737Z,101109.28
2023-03-29T18:48:02.173Z,101131.19
2023-03-29T18:51:07.408Z,101130.75
2023-03-29T18:54:09.778Z,101119.25
2023-03-29T18:57:12.012Z,101111.37
2023-03-29T19:00:14.225Z,101105.00
2023-03-29T19:03:17.978Z,101117.41
2023-03-29T19:06:21.754Z,101117.50
2023-03-29T19:09:23.585Z,101119.25
2023-03-29T19:12:25.828Z,101115.78
2023-03-29T19:15:28.273Z,101120.25
2023-03-29T19:18:30.615Z,101121.06
2023-03-29T19:21:33.272Z,101112.34
2023-03-29T19:24:35.409Z,101125.41
2023-03-29T19:27:37.650Z,101153.84
2023-03-29T19:30:39.907Z,101150.50
2023-03-29T19:33:42.178Z,101193.31
2023-03-29T19:36:44.374Z,101156.44
2023-03-29T19:39:46.646Z,101142.94
2023-03-29T19:42:49.074Z,101115.22
2023-03-29T19:45:51.305Z,101117.84
2023-03-29T19:48:55.702Z,101121.37
2023-03-29T19:51:58.388Z,101127.75
2023-03-29T19:55:00.833Z,101135.88
2023-03-29T19:58:02.756Z,101134.09
2023-03-29T20:01:04.864Z,101130.69
2023-03-29T20:04:07.731Z,101126.41
2023-03-29T20:07:09.774Z,101127.03
2023-03-29T20:10:12.259Z,101125.22
2023-03-29T20:13:17.272Z,101104.44
2023-03-29T20:16:27.157Z,101127.03
2023-03-29T20:19:29.971Z,101114.31
2023-03-29T20:22:32.780Z,101103.47
2023-03-29T20:25:36.231Z,101104.34
2023-03-29T20:28:38.250Z,101146.53
2023-03-29T20:31:40.440Z,101109.78
2023-03-29T20:34:42.374Z,101116.88
2023-03-29T20:37:44.224Z,101101.63
2023-03-29T20:40:46.052Z,101102.72
2023-03-29T20:43:47.949Z,101103.47
2023-03-29T20:47:08.614Z,101101.53
2023-03-29T20:50:10.814Z,101100.56
2023-03-29T20:53:13.299Z,101101.41
2023-03-29T20:56:15.276Z,101085.38
2023-03-29T20:59:17.682Z,101104.09
2023-03-29T21:02:22.064Z,101104.03
2023-03-29T21:05:25.534Z,101104.13
2023-03-29T21:08:28.693Z,101100.66
2023-03-29T21:11:30.481Z,101012.69
2023-03-29T21:14:33.372Z,101096.09
2023-03-29T21:17:36.068Z,101107.84
2023-03-29T21:20:38.003Z,101102.34
2023-03-29T21:23:39.993Z,101096.09
2023-03-29T21:26:41.819Z,101093.28
2023-03-29T21:29:43.683Z,101109.19
2023-03-29T21:32:45.659Z,101114.00
2023-03-29T21:35:48.509Z,101101.31
2023-03-29T21:38:50.899Z,101104.84
2023-03-29T21:41:53.199Z,101095.00
2023-03-29T21:44:54.939Z,101095.00
2023-03-29T21:47:56.881Z,101093.19
2023-03-29T21:50:58.888Z,101093.91
2023-03-29T21:54:00.717Z,101103.69
2023-03-29T21:57:02.581Z,101087.59
2023-03-29T22:00:10.953Z,101089.44
2023-03-29T22:03:13.789Z,101095.78
2023-03-29T22:06:15.645Z,101096.97
2023-03-29T22:09:17.487Z,101108.72
2023-03-29T22:12:19.734Z,101103.62
2023-03-29T22:15:21.436Z,101102.66
2023-03-29T22:18:23.687Z,101055.53
2023-03-29T22:21:26.728Z,101106.09
2023-03-29T22:24:29.076Z,101094.69
2023-03-29T22:27:31.454Z,101088.53
2023-03-29T22:30:33.500Z,101098.37
2023-03-29T22:33:36.778Z,101094.81
2023-03-29T22:36:38.708Z,101096.62
2023-03-29T22:39:40.712Z,101110.09
2023-03-29T22:42:42.505Z,101101.41
2023-03-29T22:45:44.394Z,101095.31
2023-03-29T22:48:46.641Z,101104.28
2023-03-29T22:51:48.852Z,101105.31
2023-03-29T22:54:51.214Z,101109.00
2023-03-29T22:57:53.039Z,101114.50
2023-03-29T23:00:55.176Z,101110.00
2023-03-29T23:03:57.116Z,101119.06
2023-03-29T23:06:58.969Z,101107.56
2023-03-29T23:10:00.923Z,101120.00
2023-03-29T23:13:08.890Z,101112.03
2023-03-29T23:16:11.040Z,101117.47
2023-03-29T23:19:13.619Z,101119.38
2023-03-29T23:22:15.960Z,101130.94
2023-03-29T23:25:18.289Z,101130.19
2023-03-29T23:28:23.395Z,101121.25
2023-03-29T23:31:25.333Z,101126.59
2023-03-29T23:34:27.619Z,101124.03
2023-03-29T23:37:29.500Z,101123.25
2023-03-29T23:40:33.168Z,101152.81
2023-03-29T23:43:37.302Z,101165.56
2023-03-29T23:46:39.484Z,101139.34
2023-03-29T23:49:41.993Z,101148.31
2023-03-29T23:52:43.821Z,101136.13
2023-03-29T23:55:47.396Z,101133.56
2023-03-29T23:58:49.452Z,101120.00
